createdAt,value
2018-12-26T00:00:08.851Z,101464.61
2018-12-26T00:03:14.878Z,101462.93
2018-12-26T00:06:20.831Z,101463.59
2018-12-26T00:09:26.896Z,101460.11
2018-12-26T00:12:32.776Z,101463.21
2018-12-26T00:15:38.799Z,101472.15
2018-12-26T00:18:44.785Z,101479.60
2018-12-26T00:21:50.705Z,101478.23
2018-12-26T00:24:56.706Z,101479.34
2018-12-26T00:28:02.670Z,101472.70
2018-12-26T00:31:08.502Z,101473.10
2018-12-26T00:34:14.453Z,101464.28
2018-12-26T00:37:20.390Z,101444.77
2018-12-26T00:40:26.333Z,101441.83
2018-12-26T00:43:32.227Z,101444.56
2018-12-26T00:46:38.180Z,101450.87
2018-12-26T00:49:44.167Z,101443.23
2018-12-26T00:52:50.360Z,101446.43
2018-12-26T00:55:56.366Z,101445.08
2018-12-26T00:59:02.329Z,101448.02
2018-12-26T01:02:08.272Z,101450.47
2018-12-26T01:05:14.168Z,101437.91
2018-12-26T01:08:20.060Z,101451.56
2018-12-26T01:11:40.020Z,101450.61
2018-12-26T01:14:45.913Z,101445.88
2018-12-26T01:17:51.947Z,101444.16
2018-12-26T01:20:58.224Z,101444.72
2018-12-26T01:24:04.196Z,101441.15
2018-12-26T01:27:10.313Z,101438.03
2018-12-26T01:30:16.242Z,101440.43
2018-12-26T01:33:22.413Z,101438.30
2018-12-26T01:36:28.384Z,101437.97
2018-12-26T01:39:34.608Z,101435.73
2018-12-26T01:42:40.566Z,101430.93
2018-12-26T01:45:46.456Z,101438.45
2018-12-26T01:48:52.344Z,101431.19
2018-12-26T01:52:01.308Z,101438.00
2018-12-26T01:55:07.610Z,101429.79
2018-12-26T01:58:13.610Z,101429.13
2018-12-26T02:01:19.751Z,101431.69
2018-12-26T02:04:25.649Z,101422.45
2018-12-26T02:07:31.697Z,101424.14
2018-12-26T02:10:37.750Z,101426.14
2018-12-26T02:13:43.669Z,101426.31
2018-12-26T02:16:49.552Z,101428.11
2018-12-26T02:19:55.530Z,101420.98
2018-12-26T02:23:01.509Z,101414.25
2018-12-26T02:26:07.516Z,101416.41
2018-12-26T02:29:14.068Z,101406.00
2018-12-26T02:32:20.217Z,101406.45
2018-12-26T02:35:26.221Z,101415.56
2018-12-26T02:38:32.145Z,101420.00
2018-12-26T02:41:38.011Z,101423.09
2018-12-26T02:44:44.180Z,101421.47
2018-12-26T02:47:50.150Z,101417.44
2018-12-26T02:50:56.024Z,101409.33
2018-12-26T02:54:02.102Z,101408.05
2018-12-26T02:57:08.127Z,101398.56
2018-12-26T03:00:14.150Z,101394.38
2018-12-26T03:03:20.159Z,101393.59
2018-12-26T03:06:26.260Z,101392.14
2018-12-26T03:09:32.120Z,101383.66
2018-12-26T03:12:38.092Z,101381.75
2018-12-26T03:15:44.137Z,101381.20
2018-12-26T03:18:50.182Z,101384.78
2018-12-26T03:21:56.491Z,101377.32
2018-12-26T03:25:02.399Z,101371.28
2018-12-26T03:28:08.288Z,101362.50
2018-12-26T03:31:14.288Z,101357.50
2018-12-26T03:34:20.359Z,101355.50
2018-12-26T03:37:26.341Z,101353.25
2018-12-26T03:40:32.557Z,101350.44
2018-12-26T03:43:38.605Z,101348.66
2018-12-26T03:46:45.309Z,101351.11
2018-12-26T03:49:51.426Z,101352.31
2018-12-26T03:52:57.401Z,101347.22
2018-12-26T03:56:03.440Z,101347.04
2018-12-26T03:59:09.330Z,101351.20
2018-12-26T04:02:15.259Z,101354.41
2018-12-26T04:05:21.294Z,101351.65
2018-12-26T04:08:27.297Z,101353.64
2018-12-26T04:11:33.668Z,101351.48
2018-12-26T04:14:40.894Z,101343.05
2018-12-26T04:17:46.823Z,101342.31
2018-12-26T04:20:53.008Z,101344.00
2018-12-26T04:23:58.985Z,101351.66
2018-12-26T04:27:05.079Z,101359.48
2018-12-26T04:30:13.485Z,101358.95
2018-12-26T04:33:21.499Z,101352.91
2018-12-26T04:36:27.468Z,101349.39
2018-12-26T04:39:33.381Z,101343.83
2018-12-26T04:42:39.436Z,101342.50
2018-12-26T04:45:45.763Z,101349.03
2018-12-26T04:48:51.819Z,101347.81
2018-12-26T04:51:57.811Z,101349.87
2018-12-26T04:55:03.796Z,101356.57
2018-12-26T04:58:09.763Z,101361.38
2018-12-26T05:01:15.742Z,101362.89
2018-12-26T05:04:21.892Z,101363.66
2018-12-26T05:07:27.782Z,101361.00
2018-12-26T05:10:33.682Z,101365.64
2018-12-26T05:13:39.586Z,101361.48
2018-12-26T05:16:45.574Z,101364.23
2018-12-26T05:19:51.541Z,101364.68
2018-12-26T05:22:57.832Z,101371.66
2018-12-26T05:26:04.039Z,101369.11
2018-12-26T05:29:10.147Z,101364.00
2018-12-26T05:32:16.064Z,101361.75
2018-12-26T05:35:22.156Z,101381.63
2018-12-26T05:38:30.336Z,101376.01
2018-12-26T05:41:36.139Z,101375.89
2018-12-26T05:44:41.966Z,101380.81
2018-12-26T05:48:18.823Z,101379.66
2018-12-26T05:51:41.821Z,101385.06
2018-12-26T05:54:56.232Z,101394.02
2018-12-26T05:58:02.394Z,101401.77
2018-12-26T06:01:08.683Z,101394.78
2018-12-26T06:04:16.798Z,101384.56
2018-12-26T06:07:22.613Z,101384.20
2018-12-26T06:10:28.588Z,101387.78
2018-12-26T06:13:34.480Z,101394.73
2018-12-26T06:16:41.694Z,101393.64
2018-12-26T06:19:47.627Z,101389.45
2018-12-26T06:22:53.551Z,101395.87
2018-12-26T06:25:59.505Z,101386.23
2018-12-26T06:29:05.569Z,101388.11
2018-12-26T06:32:11.929Z,101384.17
2018-12-26T06:35:17.786Z,101377.00
2018-12-26T06:38:23.681Z,101380.56
2018-12-26T06:41:29.650Z,101393.42
2018-12-26T06:44:35.542Z,101396.80
2018-12-26T06:47:41.430Z,101404.23
2018-12-26T06:50:47.477Z,101411.55
2018-12-26T06:53:53.436Z,101417.39
2018-12-26T06:56:59.340Z,101423.03
2018-12-26T07:00:05.283Z,101420.63
2018-12-26T07:03:11.159Z,101426.86
2018-12-26T07:06:17.116Z,101429.74
2018-12-26T07:09:23.305Z,101427.73
2018-12-26T07:12:29.146Z,101423.56
2018-12-26T07:15:34.995Z,101424.73
2018-12-26T07:18:40.830Z,101426.23
2018-12-26T07:21:47.926Z,101417.52
2018-12-26T07:24:54.065Z,101429.91
2018-12-26T07:28:08.783Z,101428.29
2018-12-26T07:31:07.659Z,101421.06
2018-12-26T07:34:13.641Z,101415.67
2018-12-26T07:37:19.573Z,101402.36
2018-12-26T07:40:25.506Z,101403.58
2018-12-26T07:43:31.358Z,101413.80
2018-12-26T07:46:38.368Z,101410.95
2018-12-26T07:49:44.313Z,101400.02
2018-12-26T07:52:50.256Z,101413.35
2018-12-26T07:55:56.194Z,101419.11
2018-12-26T07:59:02.204Z,101421.64
2018-12-26T08:02:08.123Z,101423.52
2018-12-26T08:05:14.130Z,101431.46
2018-12-26T08:08:20.042Z,101424.94
2018-12-26T08:11:26.007Z,101436.42
2018-12-26T08:14:32.056Z,101440.99
2018-12-26T08:17:37.862Z,101438.55
2018-12-26T08:20:43.864Z,101438.16
2018-12-26T08:23:49.775Z,101436.11
2018-12-26T08:26:55.707Z,101447.03
2018-12-26T08:30:01.663Z,101450.48
2018-12-26T08:33:07.836Z,101442.34
2018-12-26T08:36:13.831Z,101435.35
2018-12-26T08:39:19.652Z,101438.35
2018-12-26T08:42:28.034Z,101442.33
2018-12-26T08:45:33.931Z,101443.85
2018-12-26T08:48:39.780Z,101446.05
2018-12-26T08:51:45.729Z,101446.30
2018-12-26T08:54:51.623Z,101441.01
2018-12-26T08:57:57.495Z,101447.98
2018-12-26T09:01:03.372Z,101453.87
2018-12-26T09:04:10.906Z,101463.67
2018-12-26T09:07:16.986Z,101466.12
2018-12-26T09:10:22.867Z,101460.37
2018-12-26T09:13:28.755Z,101458.20
2018-12-26T09:16:34.711Z,101462.00
2018-12-26T09:19:40.625Z,101454.06
2018-12-26T09:22:46.440Z,101449.70
2018-12-26T09:25:59.351Z,101450.23
2018-12-26T09:29:05.309Z,101452.15
2018-12-26T09:32:11.345Z,101447.14
2018-12-26T09:35:17.305Z,101452.40
2018-12-26T09:38:23.172Z,101450.06
2018-12-26T09:41:29.205Z,101451.02
2018-12-26T09:44:35.230Z,101449.87
2018-12-26T09:47:41.377Z,101442.89
2018-12-26T09:50:47.255Z,101436.05
2018-12-26T09:53:53.973Z,101432.22
2018-12-26T09:56:59.811Z,101426.28
2018-12-26T10:00:06.348Z,101415.62
2018-12-26T10:03:12.235Z,101422.34
2018-12-26T10:06:18.197Z,101412.80
2018-12-26T10:09:24.128Z,101426.25
2018-12-26T10:12:30.036Z,101423.24
2018-12-26T10:15:35.937Z,101406.41
2018-12-26T10:18:41.934Z,101405.81
2018-12-26T10:21:47.807Z,101402.05
2018-12-26T10:24:53.764Z,101396.86
2018-12-26T10:27:59.791Z,101395.54
2018-12-26T10:31:05.794Z,101396.25
2018-12-26T10:34:11.745Z,101399.95
2018-12-26T10:37:17.803Z,101389.62
2018-12-26T10:40:23.755Z,101385.82
2018-12-26T10:43:29.931Z,101381.44
2018-12-26T10:46:35.804Z,101375.11
2018-12-26T10:49:41.667Z,101373.53
2018-12-26T10:52:47.722Z,101371.05
2018-12-26T10:55:53.746Z,101370.89
2018-12-26T10:59:00.001Z,101366.33
2018-12-26T11:02:06.029Z,101361.38
2018-12-26T11:05:11.913Z,101356.29
2018-12-26T11:08:17.882Z,101348.27
2018-12-26T11:11:23.709Z,101347.01
2018-12-26T11:14:29.677Z,101338.66
2018-12-26T11:17:35.627Z,101340.04
2018-12-26T11:20:41.590Z,101334.75
2018-12-26T11:23:47.362Z,101333.17
2018-12-26T11:26:53.226Z,101329.80
2018-12-26T11:29:59.079Z,101321.23
2018-12-26T11:33:05.056Z,101325.45
2018-12-26T11:36:11.088Z,101328.05
2018-12-26T11:39:17.003Z,101319.37
2018-12-26T11:42:22.951Z,101317.45
2018-12-26T11:45:28.826Z,101318.56
2018-12-26T11:48:34.765Z,101318.44
2018-12-26T11:51:40.775Z,101319.01
2018-12-26T11:54:47.231Z,101312.52
2018-12-26T11:57:53.098Z,101301.58
2018-12-26T12:00:58.996Z,101299.66
2018-12-26T12:04:05.035Z,101302.35
2018-12-26T12:07:11.143Z,101300.03
2018-12-26T12:10:17.161Z,101303.80
2018-12-26T12:13:23.109Z,101308.99
2018-12-26T12:16:29.009Z,101294.47
2018-12-26T12:19:34.994Z,101292.38
2018-12-26T12:22:40.916Z,101292.16
2018-12-26T12:25:46.938Z,101288.25
2018-12-26T12:28:52.886Z,101294.05
2018-12-26T12:31:58.871Z,101289.80
2018-12-26T12:35:04.837Z,101290.97
2018-12-26T12:38:10.785Z,101287.27
2018-12-26T12:41:16.703Z,101291.45
2018-12-26T12:44:22.835Z,101292.19
2018-12-26T12:47:28.805Z,101293.70
2018-12-26T12:50:34.882Z,101287.48
2018-12-26T12:53:40.763Z,101281.50
2018-12-26T12:56:47.019Z,101282.91
2018-12-26T12:59:53.001Z,101289.37
2018-12-26T13:03:00.597Z,101285.08
2018-12-26T13:06:07.036Z,101281.33
2018-12-26T13:09:13.057Z,101284.05
2018-12-26T13:12:19.184Z,101281.18
2018-12-26T13:15:25.244Z,101285.98
2018-12-26T13:18:31.812Z,101286.94
2018-12-26T13:21:37.737Z,101286.30
2018-12-26T13:24:43.689Z,101279.39
2018-12-26T13:27:49.925Z,101283.38
2018-12-26T13:30:55.856Z,101282.41
2018-12-26T13:34:01.770Z,101277.55
2018-12-26T13:37:07.644Z,101287.36
2018-12-26T13:40:13.624Z,101269.14
2018-12-26T13:43:19.586Z,101273.45
2018-12-26T13:46:33.532Z,101277.97
2018-12-26T13:49:33.239Z,101280.22
2018-12-26T13:52:39.298Z,101273.09
2018-12-26T13:55:45.183Z,101274.37
2018-12-26T13:58:51.283Z,101275.03
2018-12-26T14:01:57.352Z,101272.06
2018-12-26T14:05:03.384Z,101276.28
2018-12-26T14:08:10.505Z,101266.07
2018-12-26T14:11:16.531Z,101277.30
2018-12-26T14:14:22.427Z,101280.30
2018-12-26T14:17:28.361Z,101275.14
2018-12-26T14:20:34.372Z,101272.32
2018-12-26T14:23:40.444Z,101273.78
2018-12-26T14:26:46.394Z,101278.60
2018-12-26T14:29:52.344Z,101274.31
2018-12-26T14:32:58.383Z,101273.83
2018-12-26T14:36:04.490Z,101273.30
2018-12-26T14:39:10.483Z,101267.87
2018-12-26T14:42:16.537Z,101275.44
2018-12-26T14:45:22.511Z,101274.90
2018-12-26T14:48:28.526Z,101278.43
2018-12-26T14:51:34.514Z,101289.83
2018-12-26T14:54:40.501Z,101287.58
2018-12-26T14:57:46.482Z,101290.23
2018-12-26T15:00:52.487Z,101287.08
2018-12-26T15:03:58.554Z,101288.97
2018-12-26T15:07:04.471Z,101290.91
2018-12-26T15:10:11.429Z,101296.14
2018-12-26T15:13:17.597Z,101292.78
2018-12-26T15:16:23.999Z,101296.47
2018-12-26T15:19:29.955Z,101288.95
2018-12-26T15:22:44.824Z,101291.64
2018-12-26T15:25:50.907Z,101285.23
2018-12-26T15:28:56.964Z,101293.45
2018-12-26T15:32:03.098Z,101286.54
2018-12-26T15:35:08.880Z,101287.69
2018-12-26T15:38:15.053Z,101285.40
2018-12-26T15:41:21.029Z,101284.30
2018-12-26T15:44:27.081Z,101276.58
2018-12-26T15:47:33.023Z,101287.78
2018-12-26T15:50:39.052Z,101279.59
2018-12-26T15:53:44.883Z,101276.61
2018-12-26T15:56:50.892Z,101290.79
2018-12-26T15:59:56.858Z,101282.25
2018-12-26T16:03:02.767Z,101284.81
2018-12-26T16:06:08.623Z,101275.66
2018-12-26T16:09:14.561Z,101278.63
2018-12-26T16:12:20.480Z,101284.81
2018-12-26T16:15:26.567Z,101282.20
2018-12-26T16:18:32.566Z,101284.00
2018-12-26T16:21:38.484Z,101281.23
2018-12-26T16:24:44.378Z,101279.06
2018-12-26T16:27:50.642Z,101271.19
2018-12-26T16:30:56.800Z,101274.37
2018-12-26T16:34:02.856Z,101273.02
2018-12-26T16:37:08.755Z,101268.62
2018-12-26T16:40:14.760Z,101272.03
2018-12-26T16:43:20.769Z,101274.53
2018-12-26T16:46:26.755Z,101270.36
2018-12-26T16:49:32.664Z,101272.17
2018-12-26T16:52:38.647Z,101271.47
2018-12-26T16:55:44.595Z,101272.67
2018-12-26T16:58:50.662Z,101274.94
2018-12-26T17:01:56.591Z,101271.50
2018-12-26T17:05:02.606Z,101273.48
2018-12-26T17:08:08.549Z,101273.91
2018-12-26T17:11:14.610Z,101272.67
2018-12-26T17:14:20.650Z,101278.48
2018-12-26T17:17:27.003Z,101276.17
2018-12-26T17:20:32.839Z,101278.59
2018-12-26T17:23:38.890Z,101270.75
2018-12-26T17:26:44.931Z,101278.79
2018-12-26T17:29:50.825Z,101277.87
2018-12-26T17:33:00.642Z,101278.27
2018-12-26T17:36:04.982Z,101273.41
2018-12-26T17:39:11.199Z,101279.45
2018-12-26T17:42:17.237Z,101278.73
2018-12-26T17:45:26.663Z,101276.44
2018-12-26T17:48:32.620Z,101277.41
2018-12-26T17:51:38.535Z,101276.06
2018-12-26T17:55:34.803Z,101279.11
2018-12-26T17:58:53.216Z,101275.11
2018-12-26T18:02:31.434Z,101275.99
2018-12-26T18:05:37.298Z,101274.22
2018-12-26T18:08:43.215Z,101280.27
2018-12-26T18:11:51.501Z,101279.41
2018-12-26T18:14:57.052Z,101283.36
2018-12-26T18:18:03.169Z,101282.88
2018-12-26T18:21:09.054Z,101283.09
2018-12-26T18:24:15.292Z,101281.66
2018-12-26T18:27:21.386Z,101287.99
2018-12-26T18:30:27.339Z,101275.52
2018-12-26T18:33:33.502Z,101270.31
2018-12-26T18:36:39.696Z,101274.16
2018-12-26T18:39:45.640Z,101272.98
2018-12-26T18:42:54.774Z,101271.03
2018-12-26T18:46:00.778Z,101271.41
2018-12-26T18:49:06.709Z,101270.30
2018-12-26T18:52:13.809Z,101272.75
2018-12-26T18:55:19.924Z,101266.31
2018-12-26T18:58:27.979Z,101267.64
2018-12-26T19:01:33.868Z,101264.03
2018-12-26T19:04:42.561Z,101262.95
2018-12-26T19:07:48.567Z,101264.59
2018-12-26T19:10:54.534Z,101260.77
2018-12-26T19:14:00.858Z,101260.86
2018-12-26T19:17:06.819Z,101262.94
2018-12-26T19:20:13.370Z,101252.27
2018-12-26T19:23:19.310Z,101250.22
2018-12-26T19:26:25.481Z,101249.41
2018-12-26T19:29:32.463Z,101252.08
2018-12-26T19:32:38.786Z,101243.13
2018-12-26T19:35:44.939Z,101241.70
2018-12-26T19:38:57.730Z,101242.17
2018-12-26T19:42:03.646Z,101249.31
2018-12-26T19:45:10.481Z,101250.91
2018-12-26T19:48:16.370Z,101240.84
2018-12-26T19:51:22.216Z,101240.14
2018-12-26T19:54:28.256Z,101246.19
2018-12-26T19:57:34.146Z,101246.09
2018-12-26T20:00:40.155Z,101244.63
2018-12-26T20:03:46.060Z,101239.91
2018-12-26T20:06:52.017Z,101238.36
2018-12-26T20:09:58.246Z,101237.88
2018-12-26T20:13:04.547Z,101234.83
2018-12-26T20:16:10.589Z,101235.82
2018-12-26T20:19:16.501Z,101245.38
2018-12-26T20:22:22.438Z,101248.52
2018-12-26T20:25:28.438Z,101246.22
2018-12-26T20:28:34.386Z,101249.23
2018-12-26T20:31:40.290Z,101251.88
2018-12-26T20:34:46.235Z,101249.23
2018-12-26T20:37:52.271Z,101244.54
2018-12-26T20:40:58.241Z,101249.36
2018-12-26T20:44:04.217Z,101243.42
2018-12-26T20:47:10.156Z,101249.70
2018-12-26T20:50:16.112Z,101239.07
2018-12-26T20:53:22.083Z,101241.88
2018-12-26T20:56:28.215Z,101237.39
2018-12-26T20:59:34.129Z,101239.21
2018-12-26T21:02:40.134Z,101236.30
2018-12-26T21:05:46.147Z,101226.62
2018-12-26T21:08:51.975Z,101230.48
2018-12-26T21:11:57.956Z,101226.75
2018-12-26T21:15:04.019Z,101223.96
2018-12-26T21:18:09.975Z,101222.17
2018-12-26T21:21:15.912Z,101231.25
2018-12-26T21:24:21.914Z,101229.04
2018-12-26T21:27:27.836Z,101222.05
2018-12-26T21:30:33.954Z,101227.59
2018-12-26T21:33:39.825Z,101231.23
2018-12-26T21:36:45.798Z,101223.02
2018-12-26T21:39:52.220Z,101218.28
2018-12-26T21:42:58.245Z,101216.63
2018-12-26T21:46:04.328Z,101216.24
2018-12-26T21:49:10.247Z,101211.41
2018-12-26T21:52:16.266Z,101208.02
2018-12-26T21:55:22.232Z,101207.30
2018-12-26T21:58:28.259Z,101216.22
2018-12-26T22:01:34.244Z,101209.34
2018-12-26T22:04:40.295Z,101210.08
2018-12-26T22:07:46.846Z,101206.58
2018-12-26T22:10:52.930Z,101203.08
2018-12-26T22:13:58.899Z,101198.72
2018-12-26T22:17:06.205Z,101191.60
2018-12-26T22:20:12.193Z,101189.55
2018-12-26T22:23:18.053Z,101188.81
2018-12-26T22:26:24.217Z,101187.62
2018-12-26T22:29:30.137Z,101186.05
2018-12-26T22:32:36.161Z,101185.40
2018-12-26T22:35:42.238Z,101175.26
2018-12-26T22:38:48.169Z,101177.80
2018-12-26T22:41:54.190Z,101169.37
2018-12-26T22:45:00.160Z,101167.80
2018-12-26T22:48:06.238Z,101164.55
2018-12-26T22:51:12.238Z,101165.50
2018-12-26T22:54:19.538Z,101165.39
2018-12-26T22:57:25.893Z,101166.45
2018-12-26T23:00:43.536Z,101158.73
2018-12-26T23:03:49.510Z,101160.80
2018-12-26T23:06:55.352Z,101154.38
2018-12-26T23:10:01.527Z,101151.52
2018-12-26T23:13:07.454Z,101146.17
2018-12-26T23:16:13.389Z,101145.95
2018-12-26T23:19:19.397Z,101147.76
2018-12-26T23:22:25.271Z,101150.16
2018-12-26T23:25:31.229Z,101142.59
2018-12-26T23:28:37.242Z,101148.73
2018-12-26T23:31:43.211Z,101150.80
2018-12-26T23:34:49.142Z,101147.03
2018-12-26T23:37:54.986Z,101153.07
2018-12-26T23:41:00.903Z,101149.81
2018-12-26T23:44:06.865Z,101146.91
2018-12-26T23:47:12.843Z,101148.97
2018-12-26T23:50:18.846Z,101153.78
2018-12-26T23:53:24.764Z,101150.03
2018-12-26T23:57:24.581Z,101146.52
